Time;durP1;ratioP1;P1;durP2;ratioP2;P2;SDS_P1;SDS_P2;PMS_P1;PMS_P2;Temp;Humidity;BMP_temperature;BMP_pressure;BME280_temperature;BME280_humidity;BME280_pressure;Samples;Min_cycle;Max_cycle;Signal;HPM_P1;HPM_P2
2024/01/04 00:00:07;;;;;;;1.07;0.40;;;;;;;;;;4931458;29;20516;-82
2024/01/04 00:02:33;;;;;;;1.57;0.43;;;;;;;;;;4923349;29;20422;-82
2024/01/04 00:04:59;;;;;;;2.20;0.50;;;;;;;;;;4925322;29;20806;-81
2024/01/04 00:07:25;;;;;;;1.70;0.30;;;;;;;;;;4924640;29;20972;-82
2024/01/04 00:09:53;;;;;;;1.33;0.30;;;;;;;;;;4925813;29;20429;-80
2024/01/04 00:12:19;;;;;;;2.93;1.13;;;;;;;;;;4886528;29;20464;-82
2024/01/04 00:14:45;;;;;;;1.23;0.20;;;;;;;;;;4926063;29;20441;-82
2024/01/04 00:17:11;;;;;;;1.37;0.30;;;;;;;;;;4927683;29;20413;-80
2024/01/04 00:19:37;;;;;;;1.60;0.20;;;;;;;;;;4928092;29;20429;-81
2024/01/04 00:22:03;;;;;;;0.87;0.30;;;;;;;;;;4927972;29;20930;-82
2024/01/04 00:24:29;;;;;;;3.20;0.30;;;;;;;;;;4929752;29;20682;-83
2024/01/04 00:26:55;;;;;;;1.10;0.20;;;;;;;;;;4928953;29;20954;-81
2024/01/04 00:29:21;;;;;;;3.23;0.30;;;;;;;;;;4929835;29;20486;-82
2024/01/04 00:31:47;;;;;;;1.33;0.20;;;;;;;;;;4926882;29;20189;-83
2024/01/04 00:34:13;;;;;;;3.90;0.20;;;;;;;;;;4929356;29;20629;-84
2024/01/04 00:36:39;;;;;;;3.17;0.40;;;;;;;;;;4929472;29;20525;-83
2024/01/04 00:39:06;;;;;;;1.93;0.30;;;;;;;;;;4929130;29;20474;-84
2024/01/04 00:41:32;;;;;;;3.67;0.40;;;;;;;;;;4927778;29;20429;-82
2024/01/04 00:43:58;;;;;;;4.90;0.40;;;;;;;;;;4929133;29;20838;-81
2024/01/04 00:46:24;;;;;;;4.57;1.27;;;;;;;;;;4927770;29;20536;-80
2024/01/04 00:48:50;;;;;;;1.03;0.20;;;;;;;;;;4929560;29;20417;-81
2024/01/04 00:51:16;;;;;;;2.00;0.20;;;;;;;;;;4928895;29;20843;-81
2024/01/04 00:53:43;;;;;;;4.20;0.30;;;;;;;;;;4927950;29;20417;-81
2024/01/04 00:56:09;;;;;;;2.77;0.20;;;;;;;;;;4929129;29;20445;-82
2024/01/04 00:58:35;;;;;;;1.70;0.30;;;;;;;;;;4928498;29;20896;-81
2024/01/04 01:01:03;;;;;;;0.60;0.20;;;;;;;;;;4927945;29;20423;-82
2024/01/04 01:03:29;;;;;;;3.60;0.20;;;;;;;;;;4929309;29;20484;-81
2024/01/04 01:05:55;;;;;;;2.70;0.87;;;;;;;;;;4928458;29;20473;-82
2024/01/04 01:08:21;;;;;;;1.60;0.57;;;;;;;;;;4927670;29;20777;-81
2024/01/04 01:10:47;;;;;;;1.83;0.50;;;;;;;;;;4928905;29;20450;-81
2024/01/04 01:13:20;;;;;;;4.40;0.37;;;;;;;;;;4929169;29;20180;-81
2024/01/04 01:15:46;;;;;;;1.17;0.20;;;;;;;;;;4944061;28;20912;-81
2024/01/04 01:18:11;;;;;;;4.50;0.30;;;;;;;;;;4928787;29;20403;-80
2024/01/04 01:20:37;;;;;;;2.47;0.30;;;;;;;;;;4928429;29;20792;-82
2024/01/04 01:23:03;;;;;;;1.17;0.20;;;;;;;;;;4927197;29;21062;-82
2024/01/04 01:25:29;;;;;;;1.60;0.23;;;;;;;;;;4928546;29;20469;-82
2024/01/04 01:27:55;;;;;;;1.83;0.20;;;;;;;;;;4927596;29;20419;-82
2024/01/04 01:30:21;;;;;;;0.70;0.20;;;;;;;;;;4927362;29;20423;-82
2024/01/04 01:32:47;;;;;;;1.30;0.33;;;;;;;;;;4928950;29;20450;-81
2024/01/04 01:35:14;;;;;;;0.30;0.20;;;;;;;;;;4927619;29;20411;-82
2024/01/04 01:37:39;;;;;;;3.13;0.37;;;;;;;;;;4925925;29;20522;-83
2024/01/04 01:40:07;;;;;;;1.47;0.30;;;;;;;;;;4928431;29;20463;-82
2024/01/04 01:42:33;;;;;;;1.80;0.30;;;;;;;;;;4927477;29;20462;-82
2024/01/04 01:45:00;;;;;;;1.00;0.20;;;;;;;;;;4926156;29;20475;-83
2024/01/04 01:47:26;;;;;;;1.30;0.20;;;;;;;;;;4928693;29;20927;-82
2024/01/04 01:49:53;;;;;;;2.20;0.40;;;;;;;;;;4927226;29;20838;-82
2024/01/04 01:52:20;;;;;;;1.37;0.10;;;;;;;;;;4927309;29;20429;-82
2024/01/04 01:54:49;;;;;;;1.13;0.20;;;;;;;;;;4928215;29;20427;-83
2024/01/04 01:57:15;;;;;;;0.60;0.20;;;;;;;;;;4927433;29;20412;-82
2024/01/04 01:59:42;;;;;;;1.70;0.20;;;;;;;;;;4926965;29;20427;-81
2024/01/04 02:02:08;;;;;;;0.50;0.20;;;;;;;;;;4928255;29;20443;-82
2024/01/04 02:04:34;;;;;;;2.40;0.70;;;;;;;;;;4941646;29;20984;-82
2024/01/04 02:07:03;;;;;;;0.40;0.20;;;;;;;;;;4925739;29;20891;-83
2024/01/04 02:09:32;;;;;;;2.00;0.20;;;;;;;;;;4942962;29;20936;-82
2024/01/04 02:12:05;;;;;;;0.83;0.20;;;;;;;;;;4888170;29;20425;-81
2024/01/04 02:14:31;;;;;;;0.30;0.20;;;;;;;;;;4928954;28;20416;-82
2024/01/04 02:16:57;;;;;;;2.77;0.20;;;;;;;;;;4927156;29;20912;-81
2024/01/04 02:19:24;;;;;;;2.43;0.30;;;;;;;;;;4927605;29;20414;-82
2024/01/04 02:21:50;;;;;;;0.83;0.20;;;;;;;;;;4926187;29;20901;-81
2024/01/04 02:24:16;;;;;;;2.47;0.20;;;;;;;;;;4927147;29;20525;-83
2024/01/04 02:26:41;;;;;;;0.80;0.20;;;;;;;;;;4927584;29;20479;-81
2024/01/04 02:29:07;;;;;;;1.13;0.20;;;;;;;;;;4924401;29;21031;-81
2024/01/04 02:31:33;;;;;;;0.37;0.20;;;;;;;;;;4926245;29;20415;-81
2024/01/04 02:33:59;;;;;;;2.30;0.20;;;;;;;;;;4927467;29;20427;-80
2024/01/04 02:36:25;;;;;;;1.07;0.20;;;;;;;;;;4925943;29;20516;-81
2024/01/04 02:38:51;;;;;;;1.33;0.20;;;;;;;;;;4926785;29;20478;-81
2024/01/04 02:41:17;;;;;;;0.73;0.20;;;;;;;;;;4926699;29;20418;-81
2024/01/04 02:43:43;;;;;;;0.73;0.30;;;;;;;;;;4929520;29;20476;-82
2024/01/04 02:46:09;;;;;;;2.67;0.50;;;;;;;;;;4928347;29;20408;-81
2024/01/04 02:48:37;;;;;;;0.57;0.20;;;;;;;;;;4926967;29;20427;-81
2024/01/04 02:51:03;;;;;;;1.80;0.37;;;;;;;;;;4931435;29;20430;-80
2024/01/04 02:53:29;;;;;;;0.70;0.20;;;;;;;;;;4930287;29;20428;-79
2024/01/04 02:55:56;;;;;;;0.73;0.30;;;;;;;;;;4926099;29;20922;-82
2024/01/04 02:58:21;;;;;;;4.63;0.93;;;;;;;;;;4924645;29;20429;-81
2024/01/04 03:00:47;;;;;;;0.93;0.20;;;;;;;;;;4927543;29;20755;-81
2024/01/04 03:03:13;;;;;;;3.30;0.20;;;;;;;;;;4926094;29;20217;-81
2024/01/04 03:05:39;;;;;;;0.70;0.20;;;;;;;;;;4925993;29;20469;-81
2024/01/04 03:08:05;;;;;;;1.13;0.30;;;;;;;;;;4927359;29;20410;-82
2024/01/04 03:10:31;;;;;;;1.90;0.20;;;;;;;;;;4925210;29;20513;-80
2024/01/04 03:12:57;;;;;;;0.40;0.10;;;;;;;;;;4924997;29;20511;-81
2024/01/04 03:15:23;;;;;;;1.80;0.20;;;;;;;;;;4927184;29;20187;-80
2024/01/04 03:17:49;;;;;;;2.00;0.47;;;;;;;;;;4925246;29;20415;-81
2024/01/04 03:20:15;;;;;;;1.73;0.40;;;;;;;;;;4926528;29;20448;-82
2024/01/04 03:22:41;;;;;;;2.37;0.20;;;;;;;;;;4926946;29;20955;-82
2024/01/04 03:25:09;;;;;;;2.10;0.20;;;;;;;;;;4924897;29;20810;-82
2024/01/04 03:27:35;;;;;;;0.80;0.30;;;;;;;;;;4922549;29;20514;-82
2024/01/04 03:30:01;;;;;;;1.03;0.40;;;;;;;;;;4925209;29;20513;-82
2024/01/04 03:32:27;;;;;;;1.53;0.20;;;;;;;;;;4933684;29;20437;-83
2024/01/04 03:34:53;;;;;;;2.97;0.23;;;;;;;;;;4934457;29;20426;-80
2024/01/04 03:37:19;;;;;;;0.83;0.30;;;;;;;;;;4951207;28;20804;-80
2024/01/04 03:39:45;;;;;;;0.70;0.20;;;;;;;;;;4954814;28;20428;-81
2024/01/04 03:42:11;;;;;;;2.50;0.40;;;;;;;;;;4955167;28;20464;-80
2024/01/04 03:44:37;;;;;;;0.97;0.20;;;;;;;;;;4955021;28;20828;-80
2024/01/04 03:47:04;;;;;;;2.30;0.40;;;;;;;;;;4953986;28;20423;-81
2024/01/04 03:49:30;;;;;;;2.60;0.57;;;;;;;;;;4954932;28;20442;-81
2024/01/04 03:51:56;;;;;;;1.20;0.30;;;;;;;;;;4955035;28;20414;-81
2024/01/04 03:54:22;;;;;;;1.97;0.70;;;;;;;;;;4954627;28;20418;-81
2024/01/04 03:56:48;;;;;;;0.90;0.20;;;;;;;;;;4955058;28;20933;-81
2024/01/04 03:59:14;;;;;;;1.53;0.30;;;;;;;;;;4954935;28;20414;-80
2024/01/04 04:01:44;;;;;;;1.90;0.50;;;;;;;;;;4953669;28;20468;-81
2024/01/04 04:04:10;;;;;;;1.77;0.30;;;;;;;;;;4954750;28;20481;-80
2024/01/04 04:06:36;;;;;;;3.60;0.20;;;;;;;;;;4954850;28;20507;-80
2024/01/04 04:09:02;;;;;;;0.90;0.30;;;;;;;;;;4954912;28;21008;-81
2024/01/04 04:11:28;;;;;;;0.50;0.23;;;;;;;;;;4954488;28;20420;-79
2024/01/04 04:13:54;;;;;;;0.47;0.20;;;;;;;;;;4954828;28;20415;-80
2024/01/04 04:16:20;;;;;;;0.87;0.40;;;;;;;;;;4953548;28;20409;-82
2024/01/04 04:18:46;;;;;;;0.87;0.20;;;;;;;;;;4954855;28;20924;-81
2024/01/04 04:21:18;;;;;;;0.67;0.30;;;;;;;;;;4954695;28;20818;-80
2024/01/04 04:23:47;;;;;;;2.10;0.40;;;;;;;;;;4954650;28;20408;-81
2024/01/04 04:26:13;;;;;;;0.70;0.27;;;;;;;;;;4954334;28;20428;-82
2024/01/04 04:28:39;;;;;;;8.63;1.20;;;;;;;;;;4954635;28;20415;-82
2024/01/04 04:31:11;;;;;;;0.77;0.20;;;;;;;;;;4954712;28;20471;-82
2024/01/04 04:33:37;;;;;;;1.33;0.20;;;;;;;;;;4953367;28;21009;-82
2024/01/04 04:36:03;;;;;;;2.30;0.43;;;;;;;;;;4954649;28;20465;-82
2024/01/04 04:38:29;;;;;;;1.40;0.20;;;;;;;;;;4954351;28;20525;-83
2024/01/04 04:40:55;;;;;;;1.90;0.67;;;;;;;;;;4954239;28;20496;-81
2024/01/04 04:43:21;;;;;;;1.23;0.20;;;;;;;;;;4953287;28;20785;-81
2024/01/04 04:45:47;;;;;;;2.10;0.40;;;;;;;;;;4953143;28;20476;-81
2024/01/04 04:48:12;;;;;;;0.77;0.30;;;;;;;;;;4953272;28;20473;-82
2024/01/04 04:50:38;;;;;;;0.50;0.20;;;;;;;;;;4954519;28;20516;-81
2024/01/04 04:53:04;;;;;;;4.03;0.37;;;;;;;;;;4954445;28;20427;-80
2024/01/04 04:55:30;;;;;;;0.73;0.20;;;;;;;;;;4954162;28;20426;-82
2024/01/04 04:57:56;;;;;;;1.40;0.30;;;;;;;;;;4954412;28;20452;-82
2024/01/04 05:00:22;;;;;;;1.37;0.30;;;;;;;;;;4954408;28;20454;-81
2024/01/04 05:02:48;;;;;;;0.67;0.30;;;;;;;;;;4955272;28;20868;-82
2024/01/04 05:05:14;;;;;;;3.47;0.30;;;;;;;;;;4967963;28;20507;-82
2024/01/04 05:07:39;;;;;;;0.80;0.40;;;;;;;;;;4957831;28;20432;-82
2024/01/04 05:10:06;;;;;;;0.70;0.30;;;;;;;;;;4957494;28;21165;-81
2024/01/04 05:12:33;;;;;;;0.77;0.30;;;;;;;;;;4957680;28;20499;-82
2024/01/04 05:14:59;;;;;;;1.00;0.30;;;;;;;;;;4957685;28;20428;-81
2024/01/04 05:17:25;;;;;;;0.80;0.23;;;;;;;;;;4957655;28;20426;-82
2024/01/04 05:19:51;;;;;;;0.70;0.40;;;;;;;;;;4957632;28;20420;-82
2024/01/04 05:22:18;;;;;;;0.93;0.60;;;;;;;;;;4957535;28;20491;-82
2024/01/04 05:24:44;;;;;;;2.00;0.20;;;;;;;;;;4957081;28;20480;-83
2024/01/04 05:27:10;;;;;;;0.90;0.20;;;;;;;;;;4957471;28;20412;-82
2024/01/04 05:29:36;;;;;;;0.60;0.43;;;;;;;;;;4957331;28;20433;-82
2024/01/04 05:32:02;;;;;;;0.60;0.20;;;;;;;;;;4957367;28;20831;-82
2024/01/04 05:34:32;;;;;;;1.03;0.30;;;;;;;;;;4957397;28;20428;-81
2024/01/04 05:37:01;;;;;;;0.80;0.60;;;;;;;;;;4957284;28;20421;-81
2024/01/04 05:39:27;;;;;;;0.70;0.20;;;;;;;;;;4956702;28;20522;-82
2024/01/04 05:41:53;;;;;;;3.33;0.60;;;;;;;;;;4957197;28;20815;-82
2024/01/04 05:44:18;;;;;;;1.40;0.33;;;;;;;;;;4957111;28;20486;-82
2024/01/04 05:46:44;;;;;;;0.70;0.30;;;;;;;;;;4957165;28;20413;-82
2024/01/04 05:49:11;;;;;;;0.60;0.20;;;;;;;;;;4957051;28;20493;-81
2024/01/04 05:51:37;;;;;;;0.90;0.50;;;;;;;;;;4956985;28;20421;-81
2024/01/04 05:54:03;;;;;;;0.60;0.27;;;;;;;;;;4956527;28;20440;-80
2024/01/04 05:56:29;;;;;;;1.47;0.97;;;;;;;;;;4955744;28;20422;-81
2024/01/04 05:58:55;;;;;;;2.33;1.10;;;;;;;;;;4956884;28;20426;-81
2024/01/04 06:01:21;;;;;;;1.73;1.17;;;;;;;;;;4956782;28;20424;-81
2024/01/04 06:03:47;;;;;;;1.53;1.20;;;;;;;;;;4956684;28;20475;-81
2024/01/04 06:06:16;;;;;;;1.20;0.50;;;;;;;;;;4956774;28;20783;-81
2024/01/04 06:08:42;;;;;;;2.20;0.90;;;;;;;;;;4956623;28;20425;-82
2024/01/04 06:11:09;;;;;;;2.93;1.80;;;;;;;;;;4956251;28;20972;-81
2024/01/04 06:13:35;;;;;;;2.00;1.23;;;;;;;;;;4914195;28;20468;-81
2024/01/04 06:16:05;;;;;;;3.60;1.03;;;;;;;;;;4956629;28;20413;-82
2024/01/04 06:18:31;;;;;;;3.13;1.80;;;;;;;;;;4956402;28;20419;-81
2024/01/04 06:20:57;;;;;;;2.33;2.13;;;;;;;;;;4956439;28;20419;-81
2024/01/04 06:23:23;;;;;;;2.23;1.10;;;;;;;;;;4956334;28;20474;-80
2024/01/04 06:25:48;;;;;;;2.70;1.23;;;;;;;;;;4955971;28;21080;-80
2024/01/04 06:28:14;;;;;;;2.80;2.00;;;;;;;;;;4955078;29;20534;-81
2024/01/04 06:30:40;;;;;;;3.80;1.60;;;;;;;;;;4956254;28;20447;-81
2024/01/04 06:33:06;;;;;;;3.07;2.17;;;;;;;;;;4956228;28;20793;-79
2024/01/04 06:35:32;;;;;;;2.40;1.47;;;;;;;;;;4954946;28;20585;-80
2024/01/04 06:37:58;;;;;;;4.63;2.40;;;;;;;;;;4955855;28;20478;-79
2024/01/04 06:40:24;;;;;;;3.83;2.13;;;;;;;;;;4955781;28;20459;-81
2024/01/04 06:42:55;;;;;;;2.83;1.67;;;;;;;;;;4956021;28;20913;-80
2024/01/04 06:45:21;;;;;;;2.13;1.70;;;;;;;;;;4955853;28;20527;-82
2024/01/04 06:47:47;;;;;;;2.30;1.93;;;;;;;;;;4955803;28;20405;-81
2024/01/04 06:50:13;;;;;;;1.60;1.00;;;;;;;;;;4955875;28;20431;-83
2024/01/04 06:52:39;;;;;;;2.80;2.40;;;;;;;;;;4954614;29;20456;-80
2024/01/04 06:55:05;;;;;;;2.00;1.63;;;;;;;;;;4955388;28;20433;-80
2024/01/04 06:57:31;;;;;;;2.50;1.63;;;;;;;;;;4955815;28;20746;-81
2024/01/04 06:59:57;;;;;;;2.23;1.53;;;;;;;;;;4955705;28;20429;-82
2024/01/04 07:02:26;;;;;;;2.10;1.40;;;;;;;;;;4955628;28;20450;-82
2024/01/04 07:04:52;;;;;;;1.93;1.50;;;;;;;;;;4955597;28;20534;-81
2024/01/04 07:07:18;;;;;;;4.63;1.90;;;;;;;;;;4955388;28;20519;-81
2024/01/04 07:09:44;;;;;;;1.57;1.10;;;;;;;;;;4953720;28;20460;-83
2024/01/04 07:12:16;;;;;;;3.50;2.17;;;;;;;;;;4955350;28;20511;-83
2024/01/04 07:14:42;;;;;;;1.87;1.70;;;;;;;;;;4955349;28;20420;-81
2024/01/04 07:17:14;;;;;;;2.10;1.50;;;;;;;;;;4953976;29;20929;-83
2024/01/04 07:19:46;;;;;;;7.83;2.27;;;;;;;;;;4955374;28;20491;-82
2024/01/04 07:22:12;;;;;;;2.80;1.50;;;;;;;;;;4955345;28;20403;-83
2024/01/04 07:24:39;;;;;;;3.30;1.90;;;;;;;;;;4954456;28;21007;-81
2024/01/04 07:27:05;;;;;;;4.80;2.07;;;;;;;;;;4953813;28;20446;-82
2024/01/04 07:29:31;;;;;;;1.90;1.20;;;;;;;;;;4954945;28;20911;-81
2024/01/04 07:31:58;;;;;;;1.40;0.80;;;;;;;;;;4954993;28;20425;-82
2024/01/04 07:34:27;;;;;;;2.20;1.83;;;;;;;;;;4955178;28;20772;-79
2024/01/04 07:36:58;;;;;;;1.47;1.37;;;;;;;;;;4953838;29;20453;-82
2024/01/04 07:39:24;;;;;;;2.40;1.47;;;;;;;;;;4954543;28;20991;-83
2024/01/04 07:41:50;;;;;;;3.73;1.60;;;;;;;;;;4954972;28;20472;-84
2024/01/04 07:44:16;;;;;;;2.70;1.23;;;;;;;;;;4954895;28;20474;-84
2024/01/04 07:46:42;;;;;;;2.70;0.93;;;;;;;;;;4955022;28;20777;-84
2024/01/04 07:49:08;;;;;;;2.33;0.80;;;;;;;;;;4953614;29;20518;-82
2024/01/04 07:51:34;;;;;;;4.40;1.70;;;;;;;;;;4955342;28;20441;-81
2024/01/04 07:54:01;;;;;;;3.73;1.60;;;;;;;;;;4954694;28;20425;-83
2024/01/04 07:56:27;;;;;;;2.17;1.33;;;;;;;;;;4955026;28;20820;-83
2024/01/04 07:58:53;;;;;;;5.53;1.40;;;;;;;;;;4955105;28;20785;-83
2024/01/04 08:01:19;;;;;;;2.33;1.00;;;;;;;;;;4954967;28;20408;-81
2024/01/04 08:03:45;;;;;;;1.57;0.70;;;;;;;;;;4948321;28;20760;-81
2024/01/04 08:06:11;;;;;;;4.10;1.90;;;;;;;;;;4935642;29;20934;-82
2024/01/04 08:08:37;;;;;;;1.57;0.87;;;;;;;;;;4935371;29;20414;-81
2024/01/04 08:11:03;;;;;;;4.87;1.50;;;;;;;;;;4935713;29;20443;-81
2024/01/04 08:13:29;;;;;;;2.63;0.83;;;;;;;;;;4935568;29;20467;-81
2024/01/04 08:15:56;;;;;;;2.37;1.50;;;;;;;;;;4935652;29;20673;-81
2024/01/04 08:18:22;;;;;;;2.57;1.80;;;;;;;;;;4935609;29;20408;-81
2024/01/04 08:20:48;;;;;;;3.13;1.20;;;;;;;;;;4935578;29;20419;-82
2024/01/04 08:23:14;;;;;;;1.10;0.83;;;;;;;;;;4935619;29;20766;-81
2024/01/04 08:25:40;;;;;;;2.17;1.97;;;;;;;;;;4935177;29;20515;-81
2024/01/04 08:28:08;;;;;;;1.10;0.90;;;;;;;;;;4935507;29;20837;-82
2024/01/04 08:30:34;;;;;;;2.37;1.03;;;;;;;;;;4935432;29;20505;-82
2024/01/04 08:33:00;;;;;;;1.13;0.60;;;;;;;;;;4935425;29;20510;-81
2024/01/04 08:35:26;;;;;;;3.30;1.53;;;;;;;;;;4935554;29;20425;-81
2024/01/04 08:37:52;;;;;;;1.90;0.63;;;;;;;;;;4937546;29;21210;-81
2024/01/04 08:40:18;;;;;;;0.97;0.63;;;;;;;;;;4937540;29;20426;-81
2024/01/04 08:42:44;;;;;;;2.50;1.03;;;;;;;;;;4939135;29;20440;-81
2024/01/04 08:45:10;;;;;;;1.87;1.10;;;;;;;;;;4938932;29;20480;-81
2024/01/04 08:47:36;;;;;;;1.47;0.77;;;;;;;;;;4938973;29;20473;-82
2024/01/04 08:50:03;;;;;;;2.00;0.83;;;;;;;;;;4938951;29;20933;-82
2024/01/04 08:52:29;;;;;;;4.40;1.50;;;;;;;;;;4938879;29;20414;-82
2024/01/04 08:54:55;;;;;;;1.43;1.23;;;;;;;;;;4938566;29;20842;-80
2024/01/04 08:57:21;;;;;;;2.00;0.87;;;;;;;;;;4938856;29;20411;-81
2024/01/04 08:59:47;;;;;;;1.70;1.00;;;;;;;;;;4938655;29;20419;-81
2024/01/04 09:02:13;;;;;;;1.40;0.77;;;;;;;;;;4938701;29;20417;-82
2024/01/04 09:04:39;;;;;;;1.60;0.53;;;;;;;;;;4938519;29;20551;-82
2024/01/04 09:07:05;;;;;;;1.37;0.67;;;;;;;;;;4938663;29;20424;-82
2024/01/04 09:09:31;;;;;;;0.90;0.60;;;;;;;;;;4938346;29;20772;-82
2024/01/04 09:11:57;;;;;;;3.30;0.70;;;;;;;;;;4938476;29;20560;-82
2024/01/04 09:14:23;;;;;;;1.57;1.07;;;;;;;;;;4938489;29;20468;-82
2024/01/04 09:16:49;;;;;;;1.10;0.57;;;;;;;;;;4938440;29;20777;-82
2024/01/04 09:19:16;;;;;;;1.37;0.80;;;;;;;;;;4938374;29;20902;-81
2024/01/04 09:21:43;;;;;;;3.50;1.03;;;;;;;;;;4938420;29;20516;-81
2024/01/04 09:24:09;;;;;;;1.70;0.90;;;;;;;;;;4937948;29;20472;-81
2024/01/04 09:26:38;;;;;;;0.90;0.60;;;;;;;;;;4938454;29;20918;-81
2024/01/04 09:29:04;;;;;;;1.13;0.83;;;;;;;;;;4938134;29;20415;-81
2024/01/04 09:31:30;;;;;;;1.40;0.50;;;;;;;;;;4938369;29;20435;-79
2024/01/04 09:33:56;;;;;;;1.00;0.63;;;;;;;;;;4938176;29;20472;-80
2024/01/04 09:36:22;;;;;;;1.07;0.70;;;;;;;;;;4938133;29;20419;-80
2024/01/04 09:38:48;;;;;;;4.97;0.93;;;;;;;;;;4937855;29;20464;-80
2024/01/04 09:41:22;;;;;;;1.30;0.70;;;;;;;;;;4938167;29;20942;-79
2024/01/04 09:43:51;;;;;;;1.40;0.80;;;;;;;;;;4938010;29;20488;-79
2024/01/04 09:46:21;;;;;;;1.10;0.50;;;;;;;;;;4938113;29;20429;-79
2024/01/04 09:48:52;;;;;;;1.80;0.80;;;;;;;;;;4937651;29;20404;-79
2024/01/04 09:51:19;;;;;;;0.80;0.77;;;;;;;;;;4936682;29;20435;-79
2024/01/04 09:53:45;;;;;;;2.87;1.23;;;;;;;;;;4937593;29;20411;-79
2024/01/04 09:56:14;;;;;;;1.23;1.00;;;;;;;;;;4941298;29;20498;-80
2024/01/04 09:58:40;;;;;;;1.00;0.40;;;;;;;;;;4942201;29;20447;-80
2024/01/04 10:01:07;;;;;;;1.43;0.57;;;;;;;;;;4937813;29;20422;-80
2024/01/04 10:03:33;;;;;;;0.80;0.80;;;;;;;;;;4913180;29;20489;-80
2024/01/04 10:06:06;;;;;;;1.57;0.57;;;;;;;;;;4956700;28;20563;-80
2024/01/04 10:08:34;;;;;;;2.07;1.70;;;;;;;;;;4956501;28;20508;-80
2024/01/04 10:11:03;;;;;;;2.47;0.60;;;;;;;;;;4956714;28;20423;-81
2024/01/04 10:13:30;;;;;;;0.70;0.20;;;;;;;;;;4956568;28;20540;-80
2024/01/04 10:15:56;;;;;;;0.77;0.37;;;;;;;;;;4956571;28;20415;-80
2024/01/04 10:18:22;;;;;;;0.80;0.33;;;;;;;;;;4956529;28;20470;-80
2024/01/04 10:21:05;;;;;;;0.80;0.30;;;;;;;;;;4956385;28;20492;-80
2024/01/04 10:23:31;;;;;;;1.80;0.40;;;;;;;;;;4956066;28;20443;-80
2024/01/04 10:26:06;;;;;;;1.97;0.43;;;;;;;;;;4956562;28;20483;-80
2024/01/04 10:28:33;;;;;;;0.90;0.20;;;;;;;;;;4956200;28;20470;-80
2024/01/04 10:31:08;;;;;;;2.13;0.50;;;;;;;;;;4956264;28;20417;-80
2024/01/04 10:33:36;;;;;;;1.70;0.77;;;;;;;;;;4956247;28;20406;-80
2024/01/04 10:36:12;;;;;;;2.30;0.87;;;;;;;;;;4956239;28;20815;-80
2024/01/04 10:38:38;;;;;;;2.57;0.43;;;;;;;;;;4953208;28;20799;-80
2024/01/04 10:41:04;;;;;;;3.00;0.70;;;;;;;;;;4937010;29;20492;-80
2024/01/04 10:43:34;;;;;;;0.83;0.30;;;;;;;;;;4936859;29;20413;-81
2024/01/04 10:46:05;;;;;;;3.37;0.40;;;;;;;;;;4936737;29;20469;-81
2024/01/04 10:48:31;;;;;;;0.93;0.43;;;;;;;;;;4936709;29;20413;-80
2024/01/04 10:50:58;;;;;;;1.30;0.30;;;;;;;;;;4936752;29;20422;-80
2024/01/04 10:53:25;;;;;;;3.53;0.70;;;;;;;;;;4936439;29;20406;-81
2024/01/04 10:55:53;;;;;;;1.87;0.80;;;;;;;;;;4936741;29;20417;-80
2024/01/04 10:58:20;;;;;;;2.20;0.80;;;;;;;;;;4935465;29;20473;-80
2024/01/04 11:00:46;;;;;;;2.67;0.90;;;;;;;;;;4936105;29;20410;-80
2024/01/04 11:03:13;;;;;;;1.47;0.43;;;;;;;;;;4896526;28;20440;-81
2024/01/04 11:05:40;;;;;;;0.80;0.30;;;;;;;;;;4936496;29;20486;-80
2024/01/04 11:08:08;;;;;;;1.53;0.30;;;;;;;;;;4936142;29;20419;-81
2024/01/04 11:10:34;;;;;;;1.57;0.30;;;;;;;;;;4936484;29;20401;-80
2024/01/04 11:13:00;;;;;;;1.23;0.63;;;;;;;;;;4935082;29;20425;-81
2024/01/04 11:15:27;;;;;;;1.20;0.53;;;;;;;;;;4935084;29;20428;-81
2024/01/04 11:18:00;;;;;;;0.73;0.40;;;;;;;;;;4936388;29;20519;-81
2024/01/04 11:20:37;;;;;;;0.90;0.73;;;;;;;;;;4936263;29;20414;-81
2024/01/04 11:23:12;;;;;;;2.40;0.47;;;;;;;;;;4935830;29;20425;-80
2024/01/04 11:25:57;;;;;;;1.23;0.50;;;;;;;;;;4934941;29;20480;-81
2024/01/04 11:28:23;;;;;;;0.80;0.40;;;;;;;;;;4936151;29;20422;-80
2024/01/04 11:30:53;;;;;;;0.90;0.30;;;;;;;;;;4936214;29;20441;-81
2024/01/04 11:33:21;;;;;;;1.20;0.30;;;;;;;;;;4936139;29;20409;-81
2024/01/04 11:35:50;;;;;;;0.80;0.40;;;;;;;;;;4936017;29;20406;-80
2024/01/04 11:38:23;;;;;;;0.90;0.20;;;;;;;;;;4935374;29;20461;-80
2024/01/04 11:40:50;;;;;;;1.07;0.33;;;;;;;;;;4934836;29;20985;-81
2024/01/04 11:43:16;;;;;;;0.77;0.40;;;;;;;;;;4935972;29;20410;-81
2024/01/04 11:45:45;;;;;;;0.57;0.20;;;;;;;;;;4935845;29;20506;-80
2024/01/04 11:48:11;;;;;;;1.10;0.50;;;;;;;;;;4935804;29;20418;-81
2024/01/04 11:50:45;;;;;;;0.80;0.40;;;;;;;;;;4935931;29;20517;-80
2024/01/04 11:53:13;;;;;;;0.50;0.20;;;;;;;;;;4935580;29;20419;-80
2024/01/04 11:55:41;;;;;;;0.53;0.37;;;;;;;;;;4935846;29;20835;-80
2024/01/04 11:58:08;;;;;;;1.60;0.57;;;;;;;;;;4935758;29;20418;-80
2024/01/04 12:00:56;;;;;;;1.23;0.40;;;;;;;;;;4935807;29;20456;-80
2024/01/04 12:03:22;;;;;;;3.90;0.50;;;;;;;;;;4938169;29;20858;-80
2024/01/04 12:05:50;;;;;;;1.17;0.67;;;;;;;;;;4935709;29;20491;-80
2024/01/04 12:08:28;;;;;;;0.60;0.40;;;;;;;;;;4934095;29;20522;-81
2024/01/04 12:10:54;;;;;;;0.93;0.23;;;;;;;;;;4935697;29;20420;-81
2024/01/04 12:13:20;;;;;;;0.70;0.20;;;;;;;;;;4898300;29;20436;-81
2024/01/04 12:15:46;;;;;;;0.70;0.50;;;;;;;;;;4938348;29;20764;-81
2024/01/04 12:18:12;;;;;;;0.80;0.43;;;;;;;;;;4939562;29;21012;-80
2024/01/04 12:20:38;;;;;;;1.60;0.50;;;;;;;;;;4939529;29;20508;-80
2024/01/04 12:23:06;;;;;;;1.90;0.30;;;;;;;;;;4939044;29;20419;-80
2024/01/04 12:25:33;;;;;;;1.60;0.60;;;;;;;;;;4939384;29;20560;-80
2024/01/04 12:28:02;;;;;;;2.20;0.30;;;;;;;;;;4939426;29;20514;-80
2024/01/04 12:30:29;;;;;;;1.87;0.30;;;;;;;;;;4938070;29;20434;-80
2024/01/04 12:33:00;;;;;;;1.70;0.30;;;;;;;;;;4939358;29;20420;-80
2024/01/04 12:35:26;;;;;;;0.83;0.50;;;;;;;;;;4939242;29;20785;-80
2024/01/04 12:38:08;;;;;;;1.07;0.60;;;;;;;;;;4938838;29;20469;-80
2024/01/04 12:40:40;;;;;;;0.57;0.30;;;;;;;;;;4939134;29;20445;-80
2024/01/04 12:43:08;;;;;;;0.57;0.40;;;;;;;;;;4939103;29;20396;-80
2024/01/04 12:45:34;;;;;;;1.80;0.50;;;;;;;;;;4938982;29;20477;-80
2024/01/04 12:48:01;;;;;;;1.20;0.60;;;;;;;;;;4939053;29;20430;-80
2024/01/04 12:50:28;;;;;;;2.40;0.40;;;;;;;;;;4938925;29;20421;-80
2024/01/04 12:52:54;;;;;;;1.90;0.80;;;;;;;;;;4938533;29;20426;-80
2024/01/04 12:55:20;;;;;;;2.53;0.57;;;;;;;;;;4938974;29;20418;-80
2024/01/04 12:57:46;;;;;;;1.97;0.60;;;;;;;;;;4938995;29;20419;-80
2024/01/04 13:00:13;;;;;;;1.47;0.30;;;;;;;;;;4938867;29;20424;-80
2024/01/04 13:02:39;;;;;;;1.37;0.50;;;;;;;;;;4938761;29;20432;-80
2024/01/04 13:05:05;;;;;;;1.07;0.63;;;;;;;;;;4938605;29;20480;-79
2024/01/04 13:07:31;;;;;;;2.07;0.60;;;;;;;;;;4938645;29;20410;-79
2024/01/04 13:09:57;;;;;;;1.83;0.50;;;;;;;;;;4938396;29;20444;-80
2024/01/04 13:12:23;;;;;;;1.37;0.63;;;;;;;;;;4938659;29;20420;-79
2024/01/04 13:14:49;;;;;;;1.90;0.40;;;;;;;;;;4938662;29;20881;-80
2024/01/04 13:17:14;;;;;;;1.17;0.60;;;;;;;;;;4938467;29;20424;-80
2024/01/04 13:19:41;;;;;;;1.90;0.60;;;;;;;;;;4938444;29;20418;-80
2024/01/04 13:22:07;;;;;;;1.20;0.93;;;;;;;;;;4938106;29;20414;-80
2024/01/04 13:24:33;;;;;;;1.17;0.50;;;;;;;;;;4937671;29;20481;-80
2024/01/04 13:26:59;;;;;;;2.20;0.60;;;;;;;;;;4937386;29;20798;-79
2024/01/04 13:29:26;;;;;;;0.80;0.63;;;;;;;;;;4938300;29;20513;-80
2024/01/04 13:31:52;;;;;;;0.90;0.50;;;;;;;;;;4938258;29;20404;-80
2024/01/04 13:34:19;;;;;;;3.40;1.67;;;;;;;;;;4938173;29;20481;-79
2024/01/04 13:36:45;;;;;;;1.47;0.40;;;;;;;;;;4938151;29;20932;-80
2024/01/04 13:39:11;;;;;;;1.33;0.40;;;;;;;;;;4937602;29;20481;-80
2024/01/04 13:41:37;;;;;;;2.43;0.93;;;;;;;;;;4937990;29;20450;-80
2024/01/04 13:44:03;;;;;;;1.93;0.80;;;;;;;;;;4937952;29;20415;-80
2024/01/04 13:46:31;;;;;;;1.00;0.50;;;;;;;;;;4938045;29;20417;-80
2024/01/04 13:48:57;;;;;;;1.70;0.50;;;;;;;;;;4938003;29;20475;-80
2024/01/04 13:51:23;;;;;;;2.63;0.80;;;;;;;;;;4937877;29;20420;-80
2024/01/04 13:53:49;;;;;;;0.73;0.40;;;;;;;;;;4937473;29;20959;-79
2024/01/04 13:56:14;;;;;;;3.07;0.93;;;;;;;;;;4937805;29;20418;-79
2024/01/04 13:58:41;;;;;;;1.60;1.00;;;;;;;;;;4937804;29;20413;-80
2024/01/04 14:01:10;;;;;;;3.70;0.80;;;;;;;;;;4937647;29;20417;-81
2024/01/04 14:03:36;;;;;;;1.43;0.40;;;;;;;;;;4937698;29;20755;-80
2024/01/04 14:06:05;;;;;;;1.97;0.80;;;;;;;;;;4937614;29;20483;-80
2024/01/04 14:08:31;;;;;;;1.23;0.80;;;;;;;;;;4937263;29;20946;-79
2024/01/04 14:10:58;;;;;;;4.63;1.70;;;;;;;;;;4936281;29;20418;-82
2024/01/04 14:13:24;;;;;;;3.73;1.00;;;;;;;;;;4937440;29;20426;-80
2024/01/04 14:15:50;;;;;;;2.07;1.10;;;;;;;;;;4937408;29;20511;-80
2024/01/04 14:18:16;;;;;;;3.00;1.40;;;;;;;;;;4937468;29;20414;-80
2024/01/04 14:20:42;;;;;;;2.50;0.70;;;;;;;;;;4937482;29;20430;-79
2024/01/04 14:23:09;;;;;;;1.60;0.87;;;;;;;;;;4937037;29;20414;-79
2024/01/04 14:25:35;;;;;;;3.43;1.20;;;;;;;;;;4935996;29;20515;-79
2024/01/04 14:28:03;;;;;;;5.03;0.80;;;;;;;;;;4937223;29;20450;-80
2024/01/04 14:30:29;;;;;;;2.10;1.07;;;;;;;;;;4937220;29;20421;-80
2024/01/04 14:32:55;;;;;;;1.57;0.60;;;;;;;;;;4936047;29;20461;-80
2024/01/04 14:35:20;;;;;;;1.40;0.57;;;;;;;;;;4935121;29;20454;-80
2024/01/04 14:37:46;;;;;;;4.30;1.73;;;;;;;;;;4936553;29;20901;-79
2024/01/04 14:40:16;;;;;;;1.77;0.80;;;;;;;;;;4937007;29;20923;-79